Time;durP1;ratioP1;P1;durP2;ratioP2;P2;SDS_P1;SDS_P2;PMS_P1;PMS_P2;Temp;Humidity;BMP_temperature;BMP_pressure;BME280_temperature;BME280_humidity;BME280_pressure;Samples;Min_cycle;Max_cycle;Signal;HPM_P1;HPM_P2
2023/03/18 00:02:21;;;;;;;9.10;5.97;;;;;;;11.95;99.85;100614.56;5070130;28;20063;-66
2023/03/18 00:04:47;;;;;;;10.90;6.55;;;;;;;11.95;100.00;100607.66;5069877;28;20025;-66
2023/03/18 00:07:12;;;;;;;10.50;6.18;;;;;;;11.92;100.00;100605.00;5068421;28;20020;-66
2023/03/18 00:09:37;;;;;;;8.95;5.68;;;;;;;11.91;100.00;100618.78;5069881;28;20071;-66
2023/03/18 00:12:05;;;;;;;8.60;5.88;;;;;;;11.90;100.00;100622.25;5068214;28;20515;-65
2023/03/18 00:14:31;;;;;;;7.00;5.65;;;;;;;11.90;100.00;100617.06;5069861;28;20476;-66
2023/03/18 00:16:57;;;;;;;9.25;6.68;;;;;;;11.89;100.00;100620.50;5068716;28;20032;-65
2023/03/18 00:19:24;;;;;;;9.43;6.28;;;;;;;11.88;100.00;100626.53;5069582;28;20097;-66
2023/03/18 00:21:49;;;;;;;9.43;6.28;;;;;;;11.86;100.00;100626.50;5068966;28;20112;-66
2023/03/18 00:24:15;;;;;;;9.13;5.63;;;;;;;11.83;100.00;100625.53;5069671;28;20111;-66
2023/03/18 00:26:41;;;;;;;8.15;6.22;;;;;;;11.80;100.00;100630.66;5056091;28;20024;-65
2023/03/18 00:29:07;;;;;;;9.57;5.97;;;;;;;11.77;100.00;100631.47;5070308;28;20028;-66
2023/03/18 00:31:32;;;;;;;8.25;5.88;;;;;;;11.73;100.00;100635.69;5068669;28;20020;-65
2023/03/18 00:33:58;;;;;;;12.43;6.28;;;;;;;11.69;100.00;100641.69;5068641;28;20020;-65
2023/03/18 00:36:25;;;;;;;10.73;5.75;;;;;;;11.67;100.00;100638.16;5068870;28;20509;-65
2023/03/18 00:38:56;;;;;;;9.38;5.97;;;;;;;11.65;100.00;100638.13;5068264;28;20202;-65
2023/03/18 00:41:26;;;;;;;9.45;6.32;;;;;;;11.64;100.00;100640.66;5068784;28;20020;-65
2023/03/18 00:43:52;;;;;;;8.80;6.22;;;;;;;11.60;100.00;100638.84;5069162;28;20050;-66
2023/03/18 00:46:23;;;;;;;11.52;7.13;;;;;;;11.57;100.00;100639.66;5048067;28;20021;-65
2023/03/18 00:48:50;;;;;;;12.13;7.53;;;;;;;11.58;100.00;100645.72;5062724;28;20028;-66
2023/03/18 00:51:16;;;;;;;10.80;7.60;;;;;;;11.55;100.00;100648.25;5042882;28;20028;-65
2023/03/18 00:53:47;;;;;;;11.80;7.05;;;;;;;11.51;100.00;100655.94;5066742;28;20131;-65
2023/03/18 00:56:13;;;;;;;12.55;7.82;;;;;;;11.51;100.00;100662.88;5044377;28;20031;-65
2023/03/18 00:58:39;;;;;;;10.57;7.75;;;;;;;11.50;100.00;100659.38;5068469;28;20032;-65
2023/03/18 01:01:06;;;;;;;13.52;9.35;;;;;;;11.47;100.00;100661.91;5069132;28;20455;-65
2023/03/18 01:03:35;;;;;;;11.23;8.63;;;;;;;11.49;100.00;100655.03;5068386;28;20024;-66
2023/03/18 01:06:01;;;;;;;12.52;8.43;;;;;;;11.46;100.00;100657.53;5068777;28;20025;-65
2023/03/18 01:08:27;;;;;;;8.70;6.63;;;;;;;11.46;100.00;100661.88;5055660;28;20017;-66
2023/03/18 01:10:52;;;;;;;10.52;7.03;;;;;;;11.45;100.00;100660.97;5063117;28;20064;-65
2023/03/18 01:13:18;;;;;;;8.45;6.95;;;;;;;11.46;100.00;100661.88;5063253;28;20565;-66
2023/03/18 01:15:43;;;;;;;13.05;6.60;;;;;;;11.44;100.00;100656.63;5069109;28;20031;-65
2023/03/18 01:18:10;;;;;;;11.88;7.25;;;;;;;11.45;100.00;100650.59;5066277;28;20098;-65
2023/03/18 01:20:36;;;;;;;11.77;6.97;;;;;;;11.43;100.00;100652.28;5049012;28;20148;-65
2023/03/18 01:23:02;;;;;;;12.55;7.80;;;;;;;11.42;100.00;100650.53;5050532;28;20082;-65
2023/03/18 01:25:27;;;;;;;10.60;7.78;;;;;;;11.34;100.00;100652.91;5068712;28;20028;-66
2023/03/18 01:27:53;;;;;;;13.63;10.02;;;;;;;11.24;100.00;100651.78;5067921;28;20021;-65
2023/03/18 01:30:19;;;;;;;15.93;9.02;;;;;;;11.16;100.00;100653.31;5068331;28;20107;-65
2023/03/18 01:32:45;;;;;;;14.82;9.10;;;;;;;11.08;100.00;100649.66;5067443;28;20145;-66
2023/03/18 01:35:13;;;;;;;14.27;8.85;;;;;;;11.00;100.00;100652.91;5068259;28;20020;-65
2023/03/18 01:37:39;;;;;;;15.27;10.02;;;;;;;10.88;100.00;100653.44;5066804;28;20077;-65
2023/03/18 01:40:06;;;;;;;16.50;11.07;;;;;;;10.82;100.00;100653.28;5067865;28;20024;-65
2023/03/18 01:42:32;;;;;;;16.33;11.40;;;;;;;10.72;100.00;100646.94;5065490;28;20115;-65
2023/03/18 01:45:20;;;;;;;19.45;12.20;;;;;;;10.63;100.00;100644.09;5056716;28;20032;-65
2023/03/18 01:47:46;;;;;;;15.45;11.25;;;;;;;10.57;100.00;100643.09;5066059;28;20552;-65
2023/03/18 01:50:20;;;;;;;18.50;11.88;;;;;;;10.54;100.00;100642.13;5067254;28;20104;-65
2023/03/18 01:52:49;;;;;;;19.52;13.18;;;;;;;10.49;100.00;100648.88;5066431;28;20048;-65
2023/03/18 01:55:19;;;;;;;20.95;12.02;;;;;;;10.44;100.00;100640.94;5067153;28;20033;-65
2023/03/18 01:57:47;;;;;;;16.17;13.45;;;;;;;10.39;100.00;100638.22;5066716;28;20052;-65
2023/03/18 02:00:15;;;;;;;16.00;13.23;;;;;;;10.36;100.00;100632.06;5065777;28;20099;-65
2023/03/18 02:02:42;;;;;;;18.00;13.95;;;;;;;10.35;100.00;100640.66;5055814;28;20024;-65
2023/03/18 02:05:10;;;;;;;20.90;15.82;;;;;;;10.33;100.00;100638.03;5065570;28;20487;-65
2023/03/18 02:07:37;;;;;;;18.88;15.43;;;;;;;10.32;100.00;100641.47;5066878;28;20058;-65
2023/03/18 02:10:11;;;;;;;17.27;15.05;;;;;;;10.28;100.00;100643.06;5047673;28;20036;-65
2023/03/18 02:12:40;;;;;;;20.48;15.55;;;;;;;10.26;100.00;100636.97;5066755;28;20026;-65
2023/03/18 02:15:10;;;;;;;20.35;15.15;;;;;;;10.27;100.00;100643.03;5066420;28;20020;-65
2023/03/18 02:17:40;;;;;;;21.25;14.10;;;;;;;10.23;100.00;100642.06;5067159;28;20519;-65
2023/03/18 02:20:18;;;;;;;24.30;15.55;;;;;;;10.20;100.00;100640.25;5066201;28;20036;-65
2023/03/18 02:22:59;;;;;;;18.02;14.60;;;;;;;10.19;100.00;100647.97;5066908;28;20040;-65
2023/03/18 02:26:07;;;;;;;19.58;14.90;;;;;;;10.16;100.00;100645.28;5043877;28;20036;-65
2023/03/18 02:28:36;;;;;;;20.17;15.15;;;;;;;10.16;100.00;100655.66;5035442;28;20025;-65
2023/03/18 02:31:08;;;;;;;18.48;14.98;;;;;;;10.13;100.00;100655.56;5047522;28;20405;-65
2023/03/18 02:33:37;;;;;;;23.27;16.50;;;;;;;10.10;100.00;100651.16;5047661;28;20071;-65
2023/03/18 02:36:08;;;;;;;23.13;17.80;;;;;;;10.08;100.00;100648.53;5047645;28;20025;-65
2023/03/18 02:38:34;;;;;;;29.05;21.40;;;;;;;10.06;100.00;100657.94;5047711;28;20335;-65
2023/03/18 02:40:59;;;;;;;23.30;19.85;;;;;;;10.05;100.00;100660.50;5047768;28;20012;-65
2023/03/18 02:43:32;;;;;;;24.52;17.83;;;;;;;10.04;100.00;100667.38;5047725;28;20052;-65
2023/03/18 02:46:16;;;;;;;21.77;18.10;;;;;;;10.01;100.00;100672.47;5048057;28;20215;-65
2023/03/18 02:48:43;;;;;;;25.48;18.63;;;;;;;10.01;100.00;100677.63;5047798;28;20029;-65
2023/03/18 02:51:11;;;;;;;27.45;20.65;;;;;;;9.98;100.00;100672.38;5048433;28;20059;-65
2023/03/18 02:53:37;;;;;;;24.05;20.45;;;;;;;9.99;100.00;100668.94;5048319;28;20494;-65
2023/03/18 02:56:09;;;;;;;23.42;20.98;;;;;;;9.98;100.00;100680.13;5048722;28;20035;-65
2023/03/18 02:58:35;;;;;;;26.98;20.40;;;;;;;9.97;100.00;100683.53;5048904;28;20049;-65
2023/03/18 03:01:03;;;;;;;25.05;19.85;;;;;;;9.96;100.00;100681.78;5047394;28;20040;-65
2023/03/18 03:03:28;;;;;;;24.40;18.90;;;;;;;9.95;100.00;100683.50;5048625;28;20124;-65
2023/03/18 03:05:55;;;;;;;25.15;19.75;;;;;;;9.96;100.00;100679.22;5046833;28;20116;-65
2023/03/18 03:08:20;;;;;;;28.45;18.42;;;;;;;9.95;100.00;100690.38;5048490;28;20154;-65
2023/03/18 03:10:46;;;;;;;24.73;18.17;;;;;;;9.93;100.00;100692.06;5047884;28;20698;-65
2023/03/18 03:13:12;;;;;;;29.17;19.45;;;;;;;9.94;100.00;100696.38;5047631;28;20480;-65
2023/03/18 03:15:39;;;;;;;25.52;18.90;;;;;;;9.93;100.00;100695.50;5047716;28;20031;-65
2023/03/18 03:18:05;;;;;;;24.60;18.52;;;;;;;9.95;100.00;100698.13;5048646;28;20021;-65
2023/03/18 03:20:34;;;;;;;26.65;19.92;;;;;;;9.94;100.00;100697.28;5047544;28;20094;-65
2023/03/18 03:23:03;;;;;;;22.98;19.58;;;;;;;9.95;100.00;100698.13;5048578;28;20150;-65
2023/03/18 03:25:29;;;;;;;25.65;17.88;;;;;;;9.94;100.00;100701.56;5058679;28;20099;-65
2023/03/18 03:27:55;;;;;;;23.55;19.58;;;;;;;9.91;100.00;100702.34;5047788;28;20381;-65
2023/03/18 03:30:22;;;;;;;24.27;18.33;;;;;;;9.92;100.00;100691.16;5047306;28;20031;-65
2023/03/18 03:32:48;;;;;;;25.00;19.30;;;;;;;9.91;100.00;100691.97;5060784;28;20028;-65
2023/03/18 03:35:15;;;;;;;25.23;19.30;;;;;;;9.91;100.00;100701.47;5055623;28;20032;-65
2023/03/18 03:37:41;;;;;;;25.50;19.90;;;;;;;9.91;100.00;100698.88;5066395;28;20029;-65
2023/03/18 03:40:08;;;;;;;27.45;18.98;;;;;;;9.89;100.00;100704.03;5067108;28;20027;-65
2023/03/18 03:42:33;;;;;;;24.98;19.33;;;;;;;9.90;100.00;100704.88;5055626;28;20195;-65
2023/03/18 03:44:58;;;;;;;21.63;18.48;;;;;;;9.90;100.00;100702.28;5061843;28;20032;-65
2023/03/18 03:47:24;;;;;;;28.40;20.17;;;;;;;9.88;100.00;100711.72;5050489;28;20029;-65
2023/03/18 03:49:51;;;;;;;26.92;20.88;;;;;;;9.88;100.00;100707.41;5051026;28;20043;-65
2023/03/18 03:52:18;;;;;;;26.90;19.90;;;;;;;9.88;100.00;100704.84;5050410;28;20425;-65
2023/03/18 03:54:44;;;;;;;25.60;21.23;;;;;;;9.88;100.00;100711.72;5059812;28;20491;-65
2023/03/18 03:57:09;;;;;;;27.15;20.42;;;;;;;9.87;100.00;100709.97;5069316;28;20078;-65
2023/03/18 03:59:35;;;;;;;24.48;20.52;;;;;;;9.85;100.00;100712.50;5070116;28;20028;-65
2023/03/18 04:02:00;;;;;;;33.63;20.80;;;;;;;9.84;100.00;100718.50;5069651;28;20040;-65
2023/03/18 04:04:26;;;;;;;25.92;20.38;;;;;;;9.82;100.00;100717.59;5070179;28;20063;-65
2023/03/18 04:06:51;;;;;;;27.27;21.55;;;;;;;9.81;100.00;100721.88;5069528;28;20123;-65
2023/03/18 04:09:17;;;;;;;24.17;21.05;;;;;;;9.81;100.00;100723.56;5069763;28;20472;-65
2023/03/18 04:11:43;;;;;;;28.15;22.00;;;;;;;9.78;100.00;100721.78;5069315;28;20027;-66
2023/03/18 04:14:09;;;;;;;32.08;22.13;;;;;;;9.78;100.00;100720.88;5061382;28;20021;-65
2023/03/18 04:16:34;;;;;;;29.02;22.27;;;;;;;9.76;100.00;100715.66;5065637;28;20310;-65
2023/03/18 04:18:59;;;;;;;27.08;22.23;;;;;;;9.76;100.00;100722.53;5068594;28;20568;-65
2023/03/18 04:21:24;;;;;;;29.92;23.10;;;;;;;9.75;100.00;100721.66;5068957;28;20424;-65
2023/03/18 04:23:50;;;;;;;31.35;22.73;;;;;;;9.76;100.00;100722.53;5069141;28;20029;-65
2023/03/18 04:26:16;;;;;;;32.05;24.25;;;;;;;9.74;100.00;100725.09;5068915;28;20480;-65
2023/03/18 04:28:41;;;;;;;27.73;24.17;;;;;;;9.73;100.00;100723.34;5069552;28;20029;-65
2023/03/18 04:31:06;;;;;;;33.08;25.63;;;;;;;9.75;100.00;100721.66;5068792;28;20021;-65
2023/03/18 04:33:33;;;;;;;32.95;26.83;;;;;;;9.77;100.00;100726.91;5069248;28;20630;-65
2023/03/18 04:35:58;;;;;;;35.88;28.83;;;;;;;9.75;100.00;100721.66;5068926;28;20107;-65
2023/03/18 04:38:23;;;;;;;35.42;28.75;;;;;;;9.75;100.00;100726.81;5069806;28;20103;-65
2023/03/18 04:40:49;;;;;;;33.58;28.92;;;;;;;9.75;100.00;100738.91;5069099;28;20016;-65
2023/03/18 04:43:14;;;;;;;31.58;25.35;;;;;;;9.75;100.00;100728.56;5062047;28;20024;-65
2023/03/18 04:45:39;;;;;;;27.90;23.48;;;;;;;9.75;100.00;100724.25;5049285;28;20571;-65
2023/03/18 04:48:05;;;;;;;30.60;25.88;;;;;;;9.73;100.00;100737.13;5049169;28;20506;-65
2023/03/18 04:50:30;;;;;;;31.98;25.55;;;;;;;9.72;100.00;100737.09;5050002;28;20491;-65
2023/03/18 04:52:55;;;;;;;31.70;26.42;;;;;;;9.73;100.00;100741.44;5068864;28;20517;-65
2023/03/18 04:55:21;;;;;;;31.75;26.35;;;;;;;9.73;100.00;100733.69;5069000;28;20028;-65
2023/03/18 04:57:47;;;;;;;34.78;28.92;;;;;;;9.71;100.00;100740.50;5069195;28;20111;-65
2023/03/18 05:00:20;;;;;;;33.90;27.02;;;;;;;9.72;100.00;100743.16;5067345;28;20107;-64
2023/03/18 05:02:46;;;;;;;32.28;25.33;;;;;;;9.72;100.00;100752.63;5068934;28;20074;-65
2023/03/18 05:05:11;;;;;;;30.23;23.95;;;;;;;9.70;100.00;100749.09;5067850;28;20476;-65
2023/03/18 05:07:37;;;;;;;30.75;24.50;;;;;;;9.70;100.00;100754.25;5068512;28;20028;-65
2023/03/18 05:10:05;;;;;;;28.58;23.00;;;;;;;9.72;100.00;100752.63;5067467;28;20476;-65
2023/03/18 05:12:31;;;;;;;32.25;24.23;;;;;;;9.71;100.00;100753.44;5068380;28;20043;-65
2023/03/18 05:14:56;;;;;;;28.95;23.23;;;;;;;9.69;100.00;100756.00;5066762;28;20028;-65
2023/03/18 05:17:21;;;;;;;34.15;23.88;;;;;;;9.69;100.00;100757.69;5068321;28;20028;-65
2023/03/18 05:19:47;;;;;;;26.00;21.05;;;;;;;9.69;100.00;100762.88;5066851;28;20036;-65
2023/03/18 05:22:16;;;;;;;31.10;22.75;;;;;;;9.71;100.00;100756.03;5068063;28;20024;-65
2023/03/18 05:24:42;;;;;;;27.73;22.08;;;;;;;9.71;100.00;100750.88;5067546;28;20125;-65
2023/03/18 05:27:09;;;;;;;28.80;22.08;;;;;;;9.72;100.00;100750.03;5064990;28;20060;-65
2023/03/18 05:29:36;;;;;;;25.75;21.13;;;;;;;9.71;100.00;100743.09;5063086;28;20035;-65
2023/03/18 05:32:03;;;;;;;27.17;20.98;;;;;;;9.69;100.00;100743.06;5068807;28;20085;-65
2023/03/18 05:34:28;;;;;;;23.30;20.00;;;;;;;9.70;100.00;100749.09;5054217;28;20051;-64
2023/03/18 05:36:53;;;;;;;29.02;22.08;;;;;;;9.69;100.00;100752.50;5051686;28;20029;-65
2023/03/18 05:39:19;;;;;;;26.77;21.05;;;;;;;9.67;100.00;100749.00;5049144;28;20017;-65
2023/03/18 05:41:44;;;;;;;27.25;21.13;;;;;;;9.66;100.00;100735.16;5040621;28;20218;-65
2023/03/18 05:44:10;;;;;;;24.02;20.55;;;;;;;9.63;100.00;100737.66;5045210;28;20066;-65
2023/03/18 05:46:35;;;;;;;29.10;24.55;;;;;;;9.60;100.00;100743.63;5045151;28;20025;-65
2023/03/18 05:49:01;;;;;;;29.67;26.05;;;;;;;9.60;100.00;100747.91;5042379;28;20082;-65
2023/03/18 05:51:26;;;;;;;29.67;25.33;;;;;;;9.59;100.00;100754.78;5045958;28;20100;-65
2023/03/18 05:53:52;;;;;;;28.15;24.45;;;;;;;9.59;100.00;100761.66;5055529;28;20045;-65
2023/03/18 05:56:17;;;;;;;31.80;23.48;;;;;;;9.59;100.00;100767.72;5033389;28;20029;-65
2023/03/18 05:58:43;;;;;;;27.65;21.15;;;;;;;9.61;100.00;100770.34;5046176;28;20441;-64
2023/03/18 06:01:08;;;;;;;24.40;21.02;;;;;;;9.63;100.00;100773.00;5045906;28;20017;-65
2023/03/18 06:03:34;;;;;;;28.92;21.25;;;;;;;9.64;100.00;100774.75;5045206;28;20014;-65
2023/03/18 06:06:00;;;;;;;30.42;20.88;;;;;;;9.61;100.00;100784.19;5044853;28;20108;-65
2023/03/18 06:08:26;;;;;;;26.15;19.75;;;;;;;9.62;100.00;100787.66;5045480;28;20392;-66
2023/03/18 06:10:51;;;;;;;25.63;22.00;;;;;;;9.61;100.00;100786.75;5059014;28;20024;-65
2023/03/18 06:13:17;;;;;;;26.45;21.63;;;;;;;9.58;100.00;100781.50;5048449;28;20012;-65
2023/03/18 06:15:42;;;;;;;24.23;20.60;;;;;;;9.59;100.00;100793.59;5047753;28;20032;-65
2023/03/18 06:18:08;;;;;;;27.73;19.13;;;;;;;9.59;100.00;100788.41;5047778;28;20028;-65
2023/03/18 06:20:34;;;;;;;25.42;19.33;;;;;;;9.55;100.00;100786.53;5047254;28;20481;-65
2023/03/18 06:22:59;;;;;;;26.35;19.50;;;;;;;9.55;100.00;100778.78;5046235;28;20029;-65
2023/03/18 06:25:25;;;;;;;25.63;20.10;;;;;;;9.54;100.00;100784.78;5035529;28;20439;-65
2023/03/18 06:27:51;;;;;;;24.88;20.02;;;;;;;9.53;100.00;100780.44;5046661;28;20024;-65
2023/03/18 06:30:17;;;;;;;23.05;19.85;;;;;;;9.53;100.00;100783.03;5039610;28;20024;-65
2023/03/18 06:32:42;;;;;;;26.00;20.42;;;;;;;9.52;100.00;100783.84;5028163;28;20078;-65
2023/03/18 06:35:09;;;;;;;24.05;20.08;;;;;;;9.52;100.00;100782.97;5027771;28;20401;-65
2023/03/18 06:37:35;;;;;;;24.73;21.17;;;;;;;9.54;100.00;100779.59;5042568;28;20029;-65
2023/03/18 06:40:00;;;;;;;25.83;20.40;;;;;;;9.57;100.00;100784.88;5038492;28;20112;-65
2023/03/18 06:42:25;;;;;;;24.38;21.80;;;;;;;9.57;100.00;100789.19;5028202;28;20030;-65
2023/03/18 06:44:51;;;;;;;23.20;20.25;;;;;;;9.60;100.00;100795.38;5043041;28;20029;-65
2023/03/18 06:47:19;;;;;;;30.75;21.52;;;;;;;9.65;100.00;100799.81;5034006;28;20025;-65
2023/03/18 06:49:45;;;;;;;23.08;19.40;;;;;;;9.70;100.00;100801.72;5036142;28;20026;-65
2023/03/18 06:52:12;;;;;;;20.45;17.85;;;;;;;9.76;100.00;100807.94;5037216;28;20027;-65
2023/03/18 06:54:38;;;;;;;20.92;18.73;;;;;;;9.80;100.00;100812.41;5054753;28;20051;-65
2023/03/18 06:57:03;;;;;;;22.02;19.73;;;;;;;9.85;100.00;100811.75;5045815;28;20100;-65
2023/03/18 06:59:28;;;;;;;28.63;20.15;;;;;;;9.91;100.00;100815.38;5046252;28;20511;-65
2023/03/18 07:01:54;;;;;;;24.95;22.30;;;;;;;10.04;100.00;100814.94;5041436;28;20096;-65
2023/03/18 07:04:19;;;;;;;24.70;21.38;;;;;;;10.25;100.00;100811.34;5027442;28;20028;-65
2023/03/18 07:06:44;;;;;;;23.45;18.98;;;;;;;10.47;100.00;100818.91;5027256;28;20037;-65
2023/03/18 07:09:11;;;;;;;22.52;19.73;;;;;;;10.62;100.00;100831.50;5031124;28;20386;-65
2023/03/18 07:11:36;;;;;;;23.05;17.75;;;;;;;10.65;100.00;100832.47;5036488;28;20144;-65
2023/03/18 07:14:02;;;;;;;21.35;17.83;;;;;;;10.64;100.00;100833.31;5027790;28;20499;-65
2023/03/18 07:16:29;;;;;;;18.83;16.75;;;;;;;10.71;100.00;100829.19;5027403;28;20165;-65
2023/03/18 07:18:57;;;;;;;18.15;16.27;;;;;;;10.78;100.00;100833.75;5032099;28;20026;-65
2023/03/18 07:21:25;;;;;;;19.23;16.55;;;;;;;10.86;100.00;100838.28;5031448;28;20032;-65
2023/03/18 07:23:51;;;;;;;19.38;16.75;;;;;;;10.93;100.00;100837.66;5033815;28;20065;-65
2023/03/18 07:26:16;;;;;;;16.05;14.25;;;;;;;11.00;100.00;100839.59;5044309;28;20091;-65
2023/03/18 07:28:42;;;;;;;16.73;14.48;;;;;;;11.04;100.00;100850.94;5039660;28;20028;-65
2023/03/18 07:31:07;;;;;;;17.75;15.52;;;;;;;10.92;100.00;100846.25;5037057;28;20481;-65
2023/03/18 07:33:33;;;;;;;19.08;15.10;;;;;;;11.11;100.00;100854.59;5046322;28;20358;-64
2023/03/18 07:35:59;;;;;;;15.93;14.20;;;;;;;11.40;100.00;100849.38;5041174;28;20068;-65
2023/03/18 07:38:24;;;;;;;15.23;13.07;;;;;;;11.61;100.00;100850.81;5041608;28;21474;-65
2023/03/18 07:40:50;;;;;;;14.73;13.23;;;;;;;11.84;100.00;100850.56;5043097;28;20512;-65
2023/03/18 07:43:16;;;;;;;17.23;13.40;;;;;;;11.92;100.00;100856.88;5044371;28;20048;-64
2023/03/18 07:45:42;;;;;;;14.38;12.70;;;;;;;12.13;100.00;100858.28;5046265;28;20067;-65
2023/03/18 07:48:07;;;;;;;14.18;12.50;;;;;;;12.38;100.00;100868.44;5039541;28;20255;-65
2023/03/18 07:50:33;;;;;;;13.52;11.80;;;;;;;12.70;100.00;100865.75;5041904;28;20037;-65
2023/03/18 07:52:58;;;;;;;13.57;12.05;;;;;;;12.92;100.00;100867.09;5043969;28;20064;-65
2023/03/18 07:55:24;;;;;;;13.38;11.60;;;;;;;12.96;100.00;100871.53;5042503;28;20440;-65
2023/03/18 07:57:49;;;;;;;13.73;11.90;;;;;;;13.15;100.00;100876.28;5031939;28;20614;-65
2023/03/18 08:00:15;;;;;;;14.32;11.57;;;;;;;13.19;100.00;100884.19;5046660;28;20021;-65
2023/03/18 08:02:44;;;;;;;14.00;11.93;;;;;;;13.26;100.00;100877.38;5044066;28;20035;-65
2023/03/18 08:05:09;;;;;;;12.45;11.15;;;;;;;13.55;100.00;100876.25;5034348;28;20029;-65
2023/03/18 08:07:35;;;;;;;12.40;10.85;;;;;;;13.73;100.00;100872.25;5046919;28;20373;-65
2023/03/18 08:10:01;;;;;;;11.85;10.20;;;;;;;13.69;100.00;100867.00;5045611;28;20033;-65
2023/03/18 08:12:27;;;;;;;10.55;9.57;;;;;;;13.90;100.00;100865.69;5043399;28;20373;-65
2023/03/18 08:14:52;;;;;;;13.80;10.70;;;;;;;13.99;100.00;100859.75;5049405;28;20035;-66
2023/03/18 08:17:21;;;;;;;10.40;8.48;;;;;;;14.13;100.00;100854.78;5049777;28;20035;-67
2023/03/18 08:19:47;;;;;;;9.90;8.90;;;;;;;14.46;100.00;100859.66;5047715;28;20811;-65
2023/03/18 08:22:14;;;;;;;10.00;9.05;;;;;;;14.84;100.00;100862.00;5049822;28;20202;-65
2023/03/18 08:24:40;;;;;;;9.60;8.00;;;;;;;15.08;100.00;100860.59;5035543;28;20496;-65
2023/03/18 08:27:06;;;;;;;10.07;9.10;;;;;;;15.06;100.00;100867.53;5047308;28;20044;-66
2023/03/18 08:29:32;;;;;;;9.18;8.32;;;;;;;15.40;100.00;100855.78;5035161;28;20025;-65
2023/03/18 08:31:58;;;;;;;10.02;8.00;;;;;;;15.73;99.17;100860.53;5033195;28;20407;-66
2023/03/18 08:34:24;;;;;;;8.50;7.70;;;;;;;15.94;98.32;100852.88;5044667;28;20021;-66
2023/03/18 08:36:49;;;;;;;10.25;7.97;;;;;;;16.26;96.14;100873.25;5037391;28;20051;-66
2023/03/18 08:39:15;;;;;;;8.40;7.20;;;;;;;16.23;93.29;100875.84;5043271;28;20427;-66
2023/03/18 08:41:40;;;;;;;8.50;6.78;;;;;;;16.23;94.37;100877.56;5039493;28;20029;-66
2023/03/18 08:44:07;;;;;;;9.18;7.50;;;;;;;16.30;92.88;100877.66;5051613;28;20047;-66
2023/03/18 08:46:32;;;;;;;8.75;7.28;;;;;;;16.12;90.39;100886.19;5057041;28;20119;-66
2023/03/18 08:48:58;;;;;;;7.85;6.88;;;;;;;15.84;92.20;100889.38;5041153;28;20601;-66
2023/03/18 08:51:24;;;;;;;7.70;6.93;;;;;;;15.75;95.01;100884.03;5029485;28;20033;-66
2023/03/18 08:53:50;;;;;;;7.57;6.68;;;;;;;15.89;93.74;100880.69;5030962;28;20501;-66
2023/03/18 08:56:15;;;;;;;8.13;7.32;;;;;;;15.99;93.94;100882.56;5041025;28;20039;-66
2023/03/18 08:58:43;;;;;;;7.32;6.50;;;;;;;16.00;92.32;100880.84;5039507;28;20056;-66
2023/03/18 09:01:09;;;;;;;7.32;6.60;;;;;;;16.21;92.42;100880.16;5029620;28;20539;-66
2023/03/18 09:03:35;;;;;;;8.20;6.72;;;;;;;16.26;90.57;100881.09;5035478;28;20108;-66
2023/03/18 09:06:00;;;;;;;7.53;6.25;;;;;;;16.28;91.02;100884.59;5031505;28;20544;-66
2023/03/18 09:08:28;;;;;;;8.60;6.78;;;;;;;16.32;90.29;100891.59;5037778;28;20079;-66
2023/03/18 09:10:53;;;;;;;6.38;5.72;;;;;;;16.35;90.17;100884.66;5045686;28;20116;-66
2023/03/18 09:13:20;;;;;;;8.10;5.60;;;;;;;16.31;88.22;100887.25;5035810;28;20100;-66
2023/03/18 09:15:45;;;;;;;7.47;5.43;;;;;;;16.14;86.01;100888.81;5029670;28;20120;-66
2023/03/18 09:18:12;;;;;;;5.22;4.53;;;;;;;15.87;89.45;100883.28;5041514;28;20029;-66
2023/03/18 09:20:39;;;;;;;5.38;4.88;;;;;;;15.67;88.44;100888.31;5032615;28;20536;-67
2023/03/18 09:23:04;;;;;;;5.65;4.75;;;;;;;15.44;91.11;100889.78;5041981;28;20032;-67
2023/03/18 09:25:29;;;;;;;6.30;5.35;;;;;;;15.42;91.15;100881.03;5037342;28;20028;-65
2023/03/18 09:27:54;;;;;;;6.43;5.05;;;;;;;15.45;92.68;100886.28;5044930;28;20485;-65
2023/03/18 09:30:20;;;;;;;6.30;4.55;;;;;;;15.55;91.97;100895.13;5030107;28;20750;-65
2023/03/18 09:32:45;;;;;;;5.97;4.63;;;;;;;15.74;94.01;100895.34;5034907;28;20616;-65
2023/03/18 09:35:11;;;;;;;6.25;4.80;;;;;;;15.60;90.76;100893.47;5035545;28;20458;-65
2023/03/18 09:37:37;;;;;;;6.47;5.20;;;;;;;15.48;92.26;100891.59;5035434;28;20052;-66
2023/03/18 09:40:04;;;;;;;5.72;4.53;;;;;;;15.55;92.78;100895.13;5030926;28;20053;-66
2023/03/18 09:42:48;;;;;;;5.90;4.70;;;;;;;15.54;93.13;100884.69;5037385;28;20025;-66
2023/03/18 09:45:27;;;;;;;6.03;4.68;;;;;;;15.59;91.56;100888.22;5055235;28;20119;-66
2023/03/18 09:48:33;;;;;;;5.65;4.07;;;;;;;15.64;95.49;100880.41;5040666;28;20051;-66
2023/03/18 09:51:01;;;;;;;7.25;4.32;;;;;;;15.74;91.72;100882.28;5034266;28;20434;-66
2023/03/18 09:54:02;;;;;;;4.05;3.50;;;;;;;15.84;93.00;100883.28;5035674;28;20099;-66
2023/03/18 09:56:33;;;;;;;4.97;3.83;;;;;;;15.95;93.22;100889.50;5030104;28;20392;-66
2023/03/18 09:59:02;;;;;;;5.63;3.72;;;;;;;15.90;89.94;100887.69;5034736;28;20021;-66
2023/03/18 10:01:29;;;;;;;3.30;3.00;;;;;;;15.99;90.14;100887.78;5036682;28;20036;-66
2023/03/18 10:04:17;;;;;;;5.15;3.42;;;;;;;15.93;87.56;100885.09;5038222;28;20493;-66
2023/03/18 10:06:44;;;;;;;3.83;3.00;;;;;;;15.84;87.20;100878.94;5027933;28;20397;-66
2023/03/18 10:09:15;;;;;;;3.45;2.50;;;;;;;15.83;86.46;100890.22;5034318;28;20021;-67
2023/03/18 10:11:43;;;;;;;3.83;3.05;;;;;;;15.50;87.20;100888.97;5039738;28;20037;-65
2023/03/18 10:14:27;;;;;;;5.35;2.40;;;;;;;15.34;86.58;100891.38;5030644;28;20108;-65
2023/03/18 10:17:02;;;;;;;3.22;2.25;;;;;;;15.41;88.53;100894.97;5031125;28;20394;-66
2023/03/18 10:19:28;;;;;;;3.45;1.90;;;;;;;15.53;86.64;100889.00;5025519;28;20603;-66
2023/03/18 10:22:32;;;;;;;2.65;1.90;;;;;;;15.66;87.75;100895.28;5026732;28;20056;-66
2023/03/18 10:25:31;;;;;;;3.03;2.28;;;;;;;15.90;87.01;100890.31;5034104;28;20045;-66
2023/03/18 10:28:30;;;;;;;4.30;2.92;;;;;;;16.12;87.04;100886.19;5032978;28;20102;-66
2023/03/18 10:31:10;;;;;;;7.55;3.65;;;;;;;16.37;87.17;100898.63;5041326;28;20036;-66
2023/03/18 10:33:55;;;;;;;4.85;3.30;;;;;;;16.25;85.61;100889.81;5031359;28;20039;-65
2023/03/18 10:36:49;;;;;;;5.78;3.17;;;;;;;16.21;87.14;100885.41;5036303;28;20029;-65
2023/03/18 10:39:19;;;;;;;4.00;2.63;;;;;;;16.26;88.53;100891.53;5043310;28;20043;-65
2023/03/18 10:41:50;;;;;;;6.95;2.90;;;;;;;16.35;83.80;100895.13;5039878;28;20461;-65
2023/03/18 10:44:32;;;;;;;4.60;2.50;;;;;;;16.34;84.47;100891.63;5043697;28;20078;-65
2023/03/18 10:47:02;;;;;;;4.75;2.40;;;;;;;16.43;83.58;100889.09;5041306;28;20040;-65
2023/03/18 10:49:35;;;;;;;4.78;2.55;;;;;;;16.58;82.77;100891.81;5037277;28;20082;-65
2023/03/18 10:52:17;;;;;;;3.88;2.45;;;;;;;16.59;78.53;100891.81;5034562;28;20021;-65
2023/03/18 10:54:51;;;;;;;4.97;2.60;;;;;;;16.48;79.26;100885.66;5029784;28;20037;-65
2023/03/18 10:57:18;;;;;;;2.85;1.65;;;;;;;16.57;83.43;100880.47;5029155;28;20056;-65
2023/03/18 10:59:44;;;;;;;3.70;1.80;;;;;;;16.64;79.76;100874.41;5041188;28;20063;-66
2023/03/18 11:02:21;;;;;;;3.35;2.03;;;;;;;16.62;77.03;100888.38;5029674;28;20071;-65
2023/03/18 11:04:51;;;;;;;3.85;1.75;;;;;;;16.44;76.26;100876.91;5030399;28;20607;-65
2023/03/18 11:07:24;;;;;;;4.85;1.98;;;;;;;16.23;76.73;100872.34;5033134;28;20025;-65
2023/03/18 11:09:50;;;;;;;4.93;1.60;;;;;;;16.03;75.63;100873.06;5037558;28;20017;-65
2023/03/18 11:12:22;;;;;;;4.32;1.73;;;;;;;15.87;80.03;100882.41;5034408;28;20500;-66
2023/03/18 11:14:49;;;;;;;4.57;2.20;;;;;;;15.73;79.13;100876.19;5035326;28;20021;-67
2023/03/18 11:17:26;;;;;;;3.95;2.40;;;;;;;15.56;80.14;100881.22;5038596;28;20107;-67